Time;durP1;ratioP1;P1;durP2;ratioP2;P2;SDS_P1;SDS_P2;PMS_P1;PMS_P2;Temp;Humidity;BMP_temperature;BMP_pressure;BME280_temperature;BME280_humidity;BME280_pressure;Samples;Min_cycle;Max_cycle;Signal;HPM_P1;HPM_P2
2021/10/17 00:00:30;;;;;;;5.00;4.47;;;11.60;99.90;;;;;;6156384;28;20482;-62
2021/10/17 00:03:33;;;;;;;5.83;5.20;;;11.50;99.90;;;;;;6155525;28;20477;-63
2021/10/17 00:06:36;;;;;;;7.67;6.93;;;11.40;99.90;;;;;;6155329;28;20958;-62
2021/10/17 00:09:40;;;;;;;6.90;6.10;;;11.30;99.90;;;;;;6155361;28;20470;-62
2021/10/17 00:12:45;;;;;;;6.63;5.93;;;11.30;99.90;;;;;;6155747;28;20471;-62
2021/10/17 00:15:48;;;;;;;6.13;5.53;;;11.30;99.90;;;;;;6155134;28;20482;-63
2021/10/17 00:18:51;;;;;;;7.33;5.67;;;11.30;99.90;;;;;;6155345;28;20483;-63
2021/10/17 00:21:55;;;;;;;6.00;5.40;;;11.20;99.90;;;;;;6155231;28;20478;-62
2021/10/17 00:24:59;;;;;;;4.83;4.33;;;11.20;99.90;;;;;;6154944;28;20475;-62
2021/10/17 00:28:04;;;;;;;6.00;5.07;;;11.10;99.90;;;;;;6154834;28;20813;-62
2021/10/17 00:31:07;;;;;;;5.43;4.97;;;11.10;99.90;;;;;;6154320;28;20478;-62
2021/10/17 00:34:10;;;;;;;5.77;5.00;;;11.10;99.90;;;;;;6154313;28;20537;-62
2021/10/17 00:37:16;;;;;;;5.80;5.27;;;11.00;99.90;;;;;;6150443;28;20485;-62
2021/10/17 00:40:21;;;;;;;5.40;4.67;;;11.00;99.90;;;;;;6155945;28;20470;-65
2021/10/17 00:43:26;;;;;;;5.90;5.30;;;10.90;99.90;;;;;;6154992;28;20478;-66
2021/10/17 00:46:30;;;;;;;5.97;5.47;;;10.90;99.90;;;;;;6155171;28;20475;-66
2021/10/17 00:49:33;;;;;;;4.93;4.43;;;10.80;99.90;;;;;;6154730;28;20966;-65
2021/10/17 00:52:37;;;;;;;5.30;4.80;;;10.70;99.90;;;;;;6155639;28;20794;-63
2021/10/17 00:55:40;;;;;;;6.03;4.70;;;10.60;99.90;;;;;;6154749;28;20479;-62
2021/10/17 00:58:56;;;;;;;5.13;4.67;;;10.60;99.90;;;;;;6155699;28;20479;-64
2021/10/17 01:02:00;;;;;;;5.23;4.50;;;10.50;99.90;;;;;;6155568;28;20482;-63
2021/10/17 01:05:03;;;;;;;5.43;4.30;;;10.40;99.90;;;;;;6155397;28;20470;-63
2021/10/17 01:08:06;;;;;;;6.63;4.70;;;10.30;99.90;;;;;;6155721;28;20490;-64
2021/10/17 01:11:10;;;;;;;5.67;5.03;;;10.30;99.90;;;;;;6154138;28;20474;-62
2021/10/17 01:14:18;;;;;;;5.30;4.50;;;10.20;99.90;;;;;;6153642;28;20517;-61
2021/10/17 01:17:21;;;;;;;4.93;4.00;;;10.10;99.90;;;;;;6153546;28;20475;-62
2021/10/17 01:20:25;;;;;;;4.83;4.40;;;10.10;99.90;;;;;;6153365;28;20486;-62
2021/10/17 01:23:28;;;;;;;8.60;4.70;;;10.10;99.90;;;;;;6153521;28;20474;-62
2021/10/17 01:26:32;;;;;;;6.27;5.17;;;10.10;99.90;;;;;;6153273;28;20479;-62
2021/10/17 01:29:35;;;;;;;4.00;3.63;;;10.10;99.90;;;;;;6153184;28;20490;-62
2021/10/17 01:32:38;;;;;;;5.17;4.57;;;10.10;99.90;;;;;;6153098;28;20474;-63
2021/10/17 01:35:43;;;;;;;5.83;4.60;;;10.10;99.90;;;;;;6151570;28;20989;-63
2021/10/17 01:38:46;;;;;;;4.83;4.30;;;10.20;99.90;;;;;;6152682;28;20815;-65
2021/10/17 01:41:49;;;;;;;4.93;4.40;;;10.20;99.90;;;;;;6152832;28;20474;-65
2021/10/17 01:44:52;;;;;;;4.73;4.27;;;10.30;99.90;;;;;;6142846;28;20974;-63
2021/10/17 01:47:57;;;;;;;5.73;4.07;;;10.30;99.90;;;;;;6151632;28;20773;-63
2021/10/17 01:51:01;;;;;;;4.57;4.17;;;10.40;99.90;;;;;;6152413;28;20927;-63
2021/10/17 01:54:05;;;;;;;6.77;5.13;;;10.30;99.90;;;;;;6128978;28;20892;-63
2021/10/17 01:57:09;;;;;;;7.47;6.13;;;10.30;99.90;;;;;;6129619;28;20498;-63
2021/10/17 02:00:13;;;;;;;7.77;6.23;;;10.30;99.90;;;;;;6129369;28;20454;-63
2021/10/17 02:03:16;;;;;;;10.70;9.60;;;10.20;99.90;;;;;;6130373;28;20935;-63
2021/10/17 02:06:20;;;;;;;10.63;9.53;;;10.20;99.90;;;;;;6133913;28;20485;-63
2021/10/17 02:09:23;;;;;;;12.90;11.70;;;10.10;99.90;;;;;;6134289;28;20802;-64
2021/10/17 02:12:27;;;;;;;12.23;11.03;;;10.20;99.90;;;;;;6135191;28;20466;-65
2021/10/17 02:15:30;;;;;;;11.97;9.60;;;10.10;99.90;;;;;;6133819;28;20472;-65
2021/10/17 02:18:33;;;;;;;11.60;7.93;;;10.10;99.90;;;;;;6134430;28;20475;-63
2021/10/17 02:21:38;;;;;;;8.60;7.77;;;10.20;99.90;;;;;;6134113;28;21018;-63
2021/10/17 02:24:41;;;;;;;7.27;6.57;;;10.10;99.90;;;;;;6141522;28;20534;-66
2021/10/17 02:27:44;;;;;;;7.10;5.80;;;10.10;99.90;;;;;;6157571;28;20478;-65
2021/10/17 02:30:47;;;;;;;5.70;5.30;;;10.00;99.90;;;;;;6158010;28;20532;-64
2021/10/17 02:33:50;;;;;;;5.93;5.47;;;10.00;99.90;;;;;;6157518;28;20474;-63
2021/10/17 02:36:55;;;;;;;8.47;5.43;;;10.00;99.90;;;;;;6157670;28;20478;-64
2021/10/17 02:39:58;;;;;;;5.87;4.50;;;10.00;99.90;;;;;;6158781;28;20839;-63
2021/10/17 02:43:02;;;;;;;3.80;3.50;;;9.90;99.90;;;;;;6157085;28;20964;-63
2021/10/17 02:46:05;;;;;;;5.33;4.83;;;9.90;99.90;;;;;;6149835;28;20475;-64
2021/10/17 02:49:09;;;;;;;5.27;4.20;;;9.90;99.90;;;;;;6158197;28;20482;-64
2021/10/17 02:52:13;;;;;;;5.00;4.50;;;9.80;99.90;;;;;;6157553;28;20475;-63
2021/10/17 02:55:16;;;;;;;4.73;4.20;;;9.80;99.90;;;;;;6156993;28;20801;-63
2021/10/17 02:58:20;;;;;;;4.60;4.00;;;9.70;99.90;;;;;;6156504;28;20486;-63
2021/10/17 03:01:23;;;;;;;4.60;4.17;;;9.60;99.90;;;;;;6156766;28;20978;-63
2021/10/17 03:04:27;;;;;;;6.30;4.30;;;9.60;99.90;;;;;;6156853;28;20486;-64
2021/10/17 03:07:32;;;;;;;6.10;4.43;;;9.50;99.90;;;;;;6156594;28;20825;-65
2021/10/17 03:10:35;;;;;;;4.30;3.93;;;9.50;99.90;;;;;;6156843;28;20503;-63
2021/10/17 03:13:38;;;;;;;4.40;4.00;;;9.40;99.90;;;;;;6156492;28;20522;-63
2021/10/17 03:16:42;;;;;;;4.33;3.93;;;9.40;99.90;;;;;;6156137;28;20478;-64
2021/10/17 03:19:45;;;;;;;4.73;4.10;;;9.40;99.90;;;;;;6156096;28;20474;-65
2021/10/17 03:22:49;;;;;;;3.97;3.67;;;9.40;99.90;;;;;;6157158;28;20478;-65
2021/10/17 03:25:53;;;;;;;4.20;3.80;;;9.30;99.90;;;;;;6158282;28;20486;-63
2021/10/17 03:28:56;;;;;;;5.27;4.40;;;9.30;99.90;;;;;;6156979;28;20563;-63
2021/10/17 03:31:59;;;;;;;5.50;4.13;;;9.20;99.90;;;;;;6157116;28;20482;-64
2021/10/17 03:35:03;;;;;;;4.90;4.50;;;9.20;99.90;;;;;;6156677;28;20474;-64
2021/10/17 03:38:08;;;;;;;5.60;4.20;;;9.20;99.90;;;;;;6158182;28;20497;-63
2021/10/17 03:41:13;;;;;;;4.50;4.10;;;9.10;99.90;;;;;;6156131;28;20617;-63
2021/10/17 03:44:16;;;;;;;10.73;4.40;;;9.10;99.90;;;;;;6157266;28;20557;-64
2021/10/17 03:47:19;;;;;;;5.13;4.63;;;9.10;99.90;;;;;;6157424;28;20501;-64
2021/10/17 03:50:22;;;;;;;5.83;4.63;;;9.10;99.90;;;;;;6152026;28;20965;-65
2021/10/17 03:53:27;;;;;;;5.90;5.10;;;9.00;99.90;;;;;;6156001;28;20486;-65
2021/10/17 03:56:30;;;;;;;4.93;4.40;;;9.10;99.90;;;;;;6155317;28;20994;-65
2021/10/17 03:59:33;;;;;;;5.50;4.57;;;9.10;99.90;;;;;;6155571;28;20821;-66
2021/10/17 04:02:36;;;;;;;6.53;5.10;;;9.10;99.90;;;;;;6156051;28;20849;-64
2021/10/17 04:05:40;;;;;;;5.47;4.97;;;9.10;99.90;;;;;;6155996;28;20479;-64
2021/10/17 04:08:45;;;;;;;4.37;4.07;;;9.10;99.90;;;;;;6156413;28;20489;-64
2021/10/17 04:11:48;;;;;;;6.10;4.50;;;9.10;99.90;;;;;;6155949;28;20527;-63
2021/10/17 04:14:51;;;;;;;4.40;4.00;;;9.20;99.90;;;;;;6155468;28;20478;-63
2021/10/17 04:17:54;;;;;;;8.10;4.63;;;9.20;99.90;;;;;;6155190;28;20466;-64
2021/10/17 04:20:57;;;;;;;4.37;3.97;;;9.20;99.90;;;;;;6155174;28;20447;-63
2021/10/17 04:24:02;;;;;;;5.17;4.57;;;9.20;99.90;;;;;;6155002;28;20447;-65
2021/10/17 04:27:07;;;;;;;7.40;5.20;;;9.10;99.90;;;;;;6154290;28;20470;-65
2021/10/17 04:30:11;;;;;;;5.03;4.30;;;9.20;99.90;;;;;;6155327;28;20483;-65
2021/10/17 04:33:14;;;;;;;4.50;4.10;;;9.10;99.90;;;;;;6154883;28;20454;-63
2021/10/17 04:36:17;;;;;;;5.63;5.13;;;9.10;99.90;;;;;;6154549;28;20537;-63
2021/10/17 04:39:23;;;;;;;5.30;4.80;;;9.10;99.90;;;;;;6155179;28;20479;-63
2021/10/17 04:42:26;;;;;;;7.10;4.70;;;9.00;99.90;;;;;;6155153;28;20534;-63
2021/10/17 04:45:29;;;;;;;4.53;4.13;;;9.00;99.90;;;;;;6154685;28;20985;-63
2021/10/17 04:48:32;;;;;;;5.47;4.90;;;9.00;99.90;;;;;;6155056;28;20471;-62
2021/10/17 04:51:35;;;;;;;4.87;4.47;;;8.90;99.90;;;;;;6154607;28;20971;-63
2021/10/17 04:54:40;;;;;;;5.30;4.53;;;8.90;99.90;;;;;;6150174;28;20479;-64
2021/10/17 04:57:43;;;;;;;5.70;4.80;;;8.90;99.90;;;;;;6153618;28;20973;-65
2021/10/17 05:00:47;;;;;;;5.40;4.67;;;8.80;99.90;;;;;;6154135;28;20470;-62
2021/10/17 05:03:50;;;;;;;11.53;5.30;;;8.70;99.90;;;;;;6154511;28;20478;-62
2021/10/17 05:06:54;;;;;;;4.67;4.17;;;8.70;99.90;;;;;;6154062;28;20479;-63
2021/10/17 05:09:58;;;;;;;5.17;4.70;;;8.70;99.90;;;;;;6154547;28;20490;-62
2021/10/17 05:13:01;;;;;;;6.67;4.37;;;8.70;99.90;;;;;;6154002;28;20478;-62
2021/10/17 05:16:05;;;;;;;9.87;5.53;;;8.70;99.90;;;;;;6153676;28;20482;-62
2021/10/17 05:19:08;;;;;;;5.20;4.70;;;8.60;99.90;;;;;;6154273;28;20485;-62
2021/10/17 05:22:11;;;;;;;5.90;4.93;;;8.60;99.90;;;;;;6153994;28;20470;-63
2021/10/17 05:25:16;;;;;;;4.97;4.47;;;8.50;99.90;;;;;;6154329;28;20482;-63
2021/10/17 05:28:19;;;;;;;4.70;4.30;;;8.50;99.90;;;;;;6153473;28;20479;-64
2021/10/17 05:31:22;;;;;;;5.33;4.70;;;8.50;99.90;;;;;;6153125;28;20478;-65
2021/10/17 05:34:26;;;;;;;5.63;5.10;;;8.60;99.90;;;;;;6153708;28;20891;-65
2021/10/17 05:37:29;;;;;;;5.13;4.50;;;8.50;99.90;;;;;;6152693;28;20478;-64
2021/10/17 05:40:34;;;;;;;6.03;5.53;;;8.50;99.90;;;;;;6153895;28;20470;-64
2021/10/17 05:43:37;;;;;;;5.43;4.93;;;8.60;99.90;;;;;;6153869;28;20482;-64
2021/10/17 05:46:40;;;;;;;5.90;5.30;;;8.50;99.90;;;;;;6153755;28;21057;-63
2021/10/17 05:49:44;;;;;;;5.80;5.30;;;8.60;99.90;;;;;;6154131;28;20478;-64
2021/10/17 05:52:47;;;;;;;7.63;4.77;;;8.60;99.90;;;;;;6154006;28;20979;-64
2021/10/17 05:55:51;;;;;;;6.10;5.30;;;8.60;99.90;;;;;;6153014;28;20873;-64
2021/10/17 05:58:54;;;;;;;6.93;6.23;;;8.60;99.90;;;;;;6144445;28;20474;-64
2021/10/17 06:01:58;;;;;;;6.50;5.80;;;8.60;99.90;;;;;;6154015;28;20966;-64
2021/10/17 06:05:01;;;;;;;6.60;5.90;;;8.70;99.90;;;;;;6153979;28;20475;-64
2021/10/17 06:08:05;;;;;;;6.67;5.83;;;8.60;99.90;;;;;;6153754;28;20489;-62
2021/10/17 06:11:09;;;;;;;6.43;5.70;;;8.60;99.90;;;;;;6153179;28;20828;-62
2021/10/17 06:14:13;;;;;;;6.20;5.70;;;8.60;99.90;;;;;;6154299;28;20805;-62
2021/10/17 06:17:16;;;;;;;6.50;5.90;;;8.60;99.90;;;;;;6152852;28;20487;-62
2021/10/17 06:20:20;;;;;;;8.40;6.77;;;8.60;99.90;;;;;;6152718;28;20478;-64
2021/10/17 06:23:23;;;;;;;6.00;5.40;;;8.70;99.90;;;;;;6153162;28;20818;-63
2021/10/17 06:26:27;;;;;;;7.20;6.27;;;8.70;99.90;;;;;;6153021;28;20485;-63
2021/10/17 06:29:30;;;;;;;6.47;5.87;;;8.90;99.90;;;;;;6153533;28;20486;-64
2021/10/17 06:32:34;;;;;;;12.10;7.53;;;8.90;99.90;;;;;;6153237;28;20474;-63
2021/10/17 06:35:37;;;;;;;7.03;6.33;;;9.00;99.90;;;;;;6152594;28;20475;-63
2021/10/17 06:38:40;;;;;;;6.43;5.50;;;9.00;99.90;;;;;;6152897;28;20478;-64
2021/10/17 06:41:45;;;;;;;6.30;5.80;;;9.10;99.90;;;;;;6154397;28;20799;-67
2021/10/17 06:44:50;;;;;;;6.43;5.93;;;9.20;99.90;;;;;;6154949;28;20470;-65
2021/10/17 06:47:54;;;;;;;7.73;6.93;;;9.30;99.90;;;;;;6155650;28;20483;-63
2021/10/17 06:50:57;;;;;;;6.67;5.90;;;9.40;99.90;;;;;;6156700;28;20474;-64
2021/10/17 06:54:00;;;;;;;6.97;6.30;;;9.40;99.90;;;;;;6157921;28;20454;-65
2021/10/17 06:57:05;;;;;;;7.27;6.00;;;9.60;99.90;;;;;;6157388;28;20486;-65
2021/10/17 07:00:09;;;;;;;8.10;6.17;;;9.70;99.90;;;;;;6155827;28;20443;-64
2021/10/17 07:03:12;;;;;;;6.37;5.57;;;9.80;99.90;;;;;;6159521;28;20454;-64
2021/10/17 07:06:16;;;;;;;6.63;5.40;;;9.90;99.90;;;;;;6159148;28;20474;-64
2021/10/17 07:09:19;;;;;;;9.57;6.30;;;10.10;99.90;;;;;;6157844;28;20513;-62
2021/10/17 07:12:23;;;;;;;6.23;5.67;;;10.20;99.90;;;;;;6156858;28;20477;-62
2021/10/17 07:15:27;;;;;;;5.97;5.47;;;10.30;99.90;;;;;;6157424;28;20466;-62
2021/10/17 07:18:30;;;;;;;7.60;6.13;;;10.50;99.90;;;;;;6157103;28;20834;-62
2021/10/17 07:21:33;;;;;;;6.47;5.87;;;10.60;99.90;;;;;;6157056;28;20481;-62
2021/10/17 07:24:36;;;;;;;9.40;7.17;;;10.70;99.90;;;;;;6156887;28;20967;-63
2021/10/17 07:27:41;;;;;;;7.47;5.83;;;10.90;99.90;;;;;;6157479;28;20478;-65
2021/10/17 07:30:44;;;;;;;9.27;6.23;;;11.00;99.90;;;;;;6157990;28;20479;-64
2021/10/17 07:33:47;;;;;;;7.33;5.97;;;11.20;99.90;;;;;;6157374;28;20489;-63
2021/10/17 07:36:50;;;;;;;6.47;5.93;;;11.30;99.90;;;;;;6156446;28;20482;-62
2021/10/17 07:39:54;;;;;;;7.00;6.13;;;11.40;99.90;;;;;;6156281;28;20475;-63
2021/10/17 07:42:58;;;;;;;6.63;5.90;;;11.40;99.90;;;;;;6156078;28;20823;-63
2021/10/17 07:46:05;;;;;;;8.03;6.50;;;11.50;99.90;;;;;;6156331;28;20488;-65
2021/10/17 07:49:08;;;;;;;8.80;6.90;;;11.60;99.90;;;;;;6156038;28;20474;-65
2021/10/17 07:52:12;;;;;;;7.63;6.50;;;11.80;99.70;;;;;;6156202;28;20474;-65
2021/10/17 07:55:15;;;;;;;11.07;6.30;;;11.90;99.50;;;;;;6156973;28;20478;-64
2021/10/17 07:58:19;;;;;;;8.47;6.73;;;12.00;99.10;;;;;;6156870;28;20475;-64
2021/10/17 08:01:22;;;;;;;10.37;6.73;;;12.20;98.80;;;;;;6155722;28;20814;-64
2021/10/17 08:04:26;;;;;;;5.83;5.10;;;12.40;98.50;;;;;;6156381;28;20533;-65
2021/10/17 08:07:29;;;;;;;6.73;6.13;;;12.70;98.10;;;;;;6155443;28;20467;-64
2021/10/17 08:10:33;;;;;;;7.27;6.67;;;15.00;96.10;;;;;;6155004;28;20490;-65
2021/10/17 08:13:37;;;;;;;6.20;5.60;;;18.50;91.20;;;;;;6155254;28;20483;-66
2021/10/17 08:16:40;;;;;;;7.27;5.83;;;22.60;72.80;;;;;;6154787;28;20471;-66
2021/10/17 08:19:43;;;;;;;6.90;6.30;;;25.70;55.70;;;;;;6155219;28;20369;-66
2021/10/17 08:22:47;;;;;;;6.50;5.90;;;27.50;47.10;;;;;;6154556;28;20234;-66
2021/10/17 08:25:50;;;;;;;6.77;5.40;;;29.70;40.90;;;;;;6154119;28;20230;-65
2021/10/17 08:28:54;;;;;;;6.23;5.63;;;31.80;36.30;;;;;;6154203;28;20226;-66
2021/10/17 08:31:58;;;;;;;7.03;5.95;;;32.90;32.00;;;;;;6153046;28;20573;-66
2021/10/17 08:35:01;;;;;;;7.28;6.22;;;34.00;29.60;;;;;;6153998;28;20237;-67
2021/10/17 08:38:04;;;;;;;7.10;6.40;;;34.90;29.00;;;;;;6154351;28;20234;-67
2021/10/17 08:41:07;;;;;;;6.32;5.72;;;35.80;27.10;;;;;;6153170;28;20222;-67
2021/10/17 08:44:12;;;;;;;7.50;5.07;;;37.00;26.10;;;;;;6155187;28;20226;-68
2021/10/17 08:47:19;;;;;;;6.25;5.72;;;37.50;25.10;;;;;;6154645;28;20254;-67
2021/10/17 08:50:22;;;;;;;5.20;4.80;;;38.00;23.90;;;;;;6155115;28;20226;-67
2021/10/17 08:53:26;;;;;;;6.60;5.88;;;38.50;23.70;;;;;;6155719;28;20233;-68
2021/10/17 08:56:29;;;;;;;5.90;5.32;;;39.30;22.70;;;;;;6153989;28;20234;-66
2021/10/17 08:59:35;;;;;;;6.38;5.78;;;39.80;22.20;;;;;;6154096;28;20565;-66
2021/10/17 09:02:44;;;;;;;6.22;5.65;;;39.10;22.60;;;;;;6154581;28;20222;-66
2021/10/17 09:05:47;;;;;;;5.68;5.18;;;38.30;23.00;;;;;;6157492;28;20678;-66
2021/10/17 09:09:04;;;;;;;8.52;6.43;;;39.00;22.40;;;;;;6154267;28;20560;-66
2021/10/17 09:12:07;;;;;;;5.95;5.35;;;38.30;22.40;;;;;;6157915;28;20226;-66
2021/10/17 09:15:23;;;;;;;6.32;5.72;;;37.90;22.20;;;;;;6161006;28;20214;-66
2021/10/17 09:18:26;;;;;;;9.90;5.90;;;38.40;22.10;;;;;;6156233;28;20235;-66
2021/10/17 09:21:29;;;;;;;8.25;6.97;;;38.70;22.10;;;;;;6155592;28;20689;-67
2021/10/17 09:24:35;;;;;;;6.72;6.03;;;39.10;21.50;;;;;;6155070;28;20226;-66
2021/10/17 09:27:43;;;;;;;6.13;5.63;;;40.20;20.90;;;;;;6156237;28;20238;-64
2021/10/17 09:30:58;;;;;;;6.88;6.13;;;40.40;20.60;;;;;;6155820;28;20698;-65
2021/10/17 09:34:10;;;;;;;6.93;6.25;;;39.50;20.80;;;;;;6154375;28;20234;-65
2021/10/17 09:37:14;;;;;;;6.40;5.90;;;38.10;22.00;;;;;;6154326;28;20249;-65
2021/10/17 09:40:21;;;;;;;7.40;6.75;;;38.50;22.60;;;;;;6153858;28;20237;-66
2021/10/17 09:43:33;;;;;;;7.47;6.72;;;40.50;21.20;;;;;;6153850;28;20234;-64
2021/10/17 09:46:38;;;;;;;6.63;6.03;;;40.90;20.30;;;;;;6153586;28;20235;-65
2021/10/17 09:49:41;;;;;;;6.35;5.85;;;42.60;19.80;;;;;;6153479;28;20742;-66
2021/10/17 09:53:01;;;;;;;8.02;6.30;;;43.50;18.90;;;;;;6153838;28;20240;-66
2021/10/17 09:56:04;;;;;;;6.45;5.93;;;43.70;18.90;;;;;;6153008;28;20242;-66
2021/10/17 09:59:09;;;;;;;6.57;6.18;;;42.20;19.30;;;;;;6153918;28;20237;-66
2021/10/17 10:02:15;;;;;;;6.70;6.00;;;43.40;19.20;;;;;;6153440;28;20237;-66
2021/10/17 10:05:24;;;;;;;7.03;6.43;;;43.80;18.80;;;;;;6150488;28;20228;-66
2021/10/17 10:08:29;;;;;;;7.25;6.65;;;43.80;18.20;;;;;;6153487;28;20230;-64
2021/10/17 10:11:33;;;;;;;6.50;6.00;;;43.70;18.60;;;;;;6152771;28;20566;-65
2021/10/17 10:14:40;;;;;;;6.82;6.32;;;44.80;18.30;;;;;;6148702;28;20247;-65
2021/10/17 10:17:47;;;;;;;7.05;6.55;;;46.00;17.50;;;;;;6152597;28;20235;-65
2021/10/17 10:20:50;;;;;;;7.88;7.28;;;46.70;17.10;;;;;;6153599;28;20234;-65
2021/10/17 10:23:58;;;;;;;6.75;6.25;;;47.20;16.50;;;;;;6153481;28;20335;-65
2021/10/17 10:27:03;;;;;;;7.57;6.97;;;47.20;16.20;;;;;;6157521;28;20234;-66
2021/10/17 10:30:28;;;;;;;7.43;6.80;;;47.20;16.10;;;;;;6157237;28;20201;-65
2021/10/17 10:33:41;;;;;;;6.90;6.40;;;47.10;15.80;;;;;;6157267;28;20248;-66
2021/10/17 10:36:46;;;;;;;6.60;6.05;;;47.40;16.00;;;;;;6157131;28;20236;-65
2021/10/17 10:40:15;;;;;;;6.60;6.10;;;47.70;15.70;;;;;;6156785;28;20693;-65
2021/10/17 10:43:18;;;;;;;6.97;6.47;;;47.90;15.60;;;;;;6157008;28;20248;-64
2021/10/17 10:46:29;;;;;;;6.88;6.38;;;47.90;15.60;;;;;;6156980;28;20241;-64
2021/10/17 10:49:41;;;;;;;8.05;7.38;;;47.90;15.60;;;;;;6156972;28;20234;-64
2021/10/17 10:52:45;;;;;;;8.18;7.57;;;46.70;15.80;;;;;;6157214;28;20235;-66
2021/10/17 10:55:50;;;;;;;8.90;8.20;;;46.70;15.90;;;;;;6156477;28;20308;-66
2021/10/17 10:58:55;;;;;;;7.82;6.88;;;47.00;15.70;;;;;;6157024;28;20246;-68
2021/10/17 11:02:10;;;;;;;5.80;5.35;;;44.90;16.60;;;;;;6157040;28;20562;-67
2021/10/17 11:05:17;;;;;;;6.00;5.57;;;44.10;17.30;;;;;;6156616;28;20228;-66
2021/10/17 11:08:20;;;;;;;7.15;6.45;;;45.10;17.00;;;;;;6156806;28;20242;-68
2021/10/17 11:11:38;;;;;;;7.88;7.38;;;46.10;16.50;;;;;;6156541;28;20411;-67
2021/10/17 11:14:42;;;;;;;6.28;5.85;;;45.00;16.50;;;;;;6156935;28;20689;-66
2021/10/17 11:17:49;;;;;;;6.13;5.63;;;45.60;16.60;;;;;;6156620;28;20248;-66
2021/10/17 11:20:54;;;;;;;6.00;5.40;;;47.30;16.10;;;;;;6156196;28;20228;-67
2021/10/17 11:23:57;;;;;;;6.00;5.45;;;48.60;15.40;;;;;;6156128;28;20214;-67
2021/10/17 11:27:10;;;;;;;5.95;5.57;;;48.30;15.20;;;;;;6156283;28;20231;-67
2021/10/17 11:30:21;;;;;;;6.50;6.00;;;47.40;15.60;;;;;;6156356;28;20260;-66
2021/10/17 11:33:24;;;;;;;5.60;5.20;;;47.40;16.10;;;;;;6155773;28;20620;-66
2021/10/17 11:36:30;;;;;;;6.57;6.18;;;47.20;15.90;;;;;;6154498;28;20226;-67
2021/10/17 11:39:55;;;;;;;6.20;5.80;;;48.20;15.80;;;;;;6155811;28;20382;-66
2021/10/17 11:42:59;;;;;;;6.85;6.35;;;46.00;16.80;;;;;;6155763;28;20625;-66
2021/10/17 11:46:04;;;;;;;6.50;5.90;;;44.40;17.50;;;;;;6155709;28;20245;-66
2021/10/17 11:49:12;;;;;;;6.40;6.00;;;45.30;17.70;;;;;;6155771;28;20671;-66
2021/10/17 11:52:17;;;;;;;7.15;5.90;;;46.90;16.50;;;;;;6155669;28;20246;-66
2021/10/17 11:55:32;;;;;;;6.57;6.18;;;47.50;16.50;;;;;;6155440;28;20231;-67
2021/10/17 11:58:37;;;;;;;6.63;6.10;;;46.70;16.20;;;;;;6154852;28;20677;-65
2021/10/17 12:01:41;;;;;;;7.00;6.50;;;45.10;17.10;;;;;;6156012;28;20239;-66
2021/10/17 12:04:46;;;;;;;6.85;6.45;;;45.00;17.30;;;;;;6163012;28;20235;-66
2021/10/17 12:07:55;;;;;;;8.13;7.63;;;45.60;17.00;;;;;;6179230;28;20257;-66
2021/10/17 12:11:01;;;;;;;7.22;6.45;;;44.60;17.30;;;;;;6179202;28;20244;-66
2021/10/17 12:14:06;;;;;;;7.13;6.63;;;43.80;17.60;;;;;;6156044;28;20245;-65
2021/10/17 12:17:09;;;;;;;6.00;5.60;;;44.70;17.70;;;;;;6155019;28;20683;-66
2021/10/17 12:20:15;;;;;;;7.30;6.80;;;45.40;17.10;;;;;;6155127;28;20235;-67
2021/10/17 12:23:22;;;;;;;6.95;6.50;;;45.40;16.80;;;;;;6146156;28;20229;-66
2021/10/17 12:26:28;;;;;;;6.65;6.15;;;41.20;19.80;;;;;;6154863;28;20582;-66
2021/10/17 12:29:32;;;;;;;6.80;6.30;;;39.40;20.90;;;;;;6155832;28;20230;-68
2021/10/17 12:32:46;;;;;;;6.30;5.90;;;40.70;20.20;;;;;;6157864;28;20246;-67
2021/10/17 12:35:49;;;;;;;6.05;5.55;;;39.30;20.60;;;;;;6156915;28;20246;-67
2021/10/17 12:39:01;;;;;;;6.18;5.68;;;40.90;19.70;;;;;;6156733;28;20245;-66
2021/10/17 12:42:05;;;;;;;6.63;6.22;;;42.10;18.90;;;;;;6155092;28;20224;-66
2021/10/17 12:45:12;;;;;;;7.40;5.50;;;43.10;18.30;;;;;;6155453;28;20208;-65
2021/10/17 12:48:17;;;;;;;6.38;5.88;;;44.10;17.90;;;;;;6154368;28;20234;-67
2021/10/17 12:51:32;;;;;;;6.47;5.93;;;45.00;17.30;;;;;;6155003;28;20234;-65
2021/10/17 12:54:38;;;;;;;5.57;5.28;;;45.80;16.70;;;;;;6154424;28;20243;-67
2021/10/17 12:57:41;;;;;;;6.10;5.72;;;46.20;16.70;;;;;;6154057;28;20295;-66
2021/10/17 13:01:00;;;;;;;6.40;6.00;;;46.10;16.80;;;;;;6154034;28;20233;-65
2021/10/17 13:04:11;;;;;;;6.53;6.03;;;45.70;16.60;;;;;;6155197;28;20234;-67
2021/10/17 13:07:16;;;;;;;6.70;6.10;;;42.10;18.50;;;;;;6155041;28;20698;-68
2021/10/17 13:10:27;;;;;;;6.20;5.60;;;41.90;18.80;;;;;;6153490;28;20218;-68
2021/10/17 13:13:33;;;;;;;6.60;5.30;;;42.80;18.50;;;;;;6155167;28;20236;-67
2021/10/17 13:16:39;;;;;;;6.20;5.80;;;42.60;18.20;;;;;;6154238;28;20236;-65
2021/10/17 13:19:42;;;;;;;5.15;4.75;;;42.60;18.30;;;;;;6153725;28;20558;-66
2021/10/17 13:22:46;;;;;;;5.45;5.05;;;42.60;18.00;;;;;;6152706;28;20237;-66
2021/10/17 13:25:56;;;;;;;5.18;4.78;;;40.80;18.80;;;;;;6143160;28;20245;-66
2021/10/17 13:29:00;;;;;;;4.93;4.57;;;40.60;19.30;;;;;;6151917;28;20586;-66
2021/10/17 13:32:03;;;;;;;4.45;4.15;;;39.50;19.90;;;;;;6152210;28;20238;-66
2021/10/17 13:35:07;;;;;;;5.85;5.35;;;36.40;21.40;;;;;;6152228;28;20568;-66
2021/10/17 13:38:13;;;;;;;5.47;5.07;;;33.70;23.40;;;;;;6153501;28;20687;-66
2021/10/17 13:41:19;;;;;;;6.05;5.65;;;32.00;24.80;;;;;;6154229;28;20373;-66
2021/10/17 13:44:22;;;;;;;6.40;5.93;;;30.00;26.90;;;;;;6153868;28;20689;-65
2021/10/17 13:47:25;;;;;;;5.10;4.70;;;28.40;28.70;;;;;;6153273;28;20245;-66
2021/10/17 13:50:29;;;;;;;5.80;5.20;;;26.90;30.60;;;;;;6153831;28;20238;-65
2021/10/17 13:53:33;;;;;;;5.27;4.87;;;25.00;33.80;;;;;;6152761;28;20241;-65
2021/10/17 13:56:37;;;;;;;5.40;5.00;;;23.80;35.50;;;;;;6152751;28;20243;-65
2021/10/17 13:59:40;;;;;;;5.47;4.97;;;23.20;36.80;;;;;;6152001;28;20261;-65
2021/10/17 14:02:44;;;;;;;5.30;4.80;;;22.70;38.00;;;;;;6153441;28;20227;-64
2021/10/17 14:05:47;;;;;;;4.90;4.47;;;22.10;39.10;;;;;;6152557;28;20231;-64
2021/10/17 14:08:50;;;;;;;5.20;4.80;;;21.60;40.00;;;;;;6152696;28;20243;-64
2021/10/17 14:11:54;;;;;;;6.60;5.97;;;21.20;41.90;;;;;;6153293;28;20223;-65
2021/10/17 14:14:57;;;;;;;7.93;7.23;;;20.90;43.70;;;;;;6152722;28;20242;-65
2021/10/17 14:18:01;;;;;;;6.30;5.23;;;20.70;44.90;;;;;;6152839;28;20223;-65
2021/10/17 14:21:04;;;;;;;6.87;6.20;;;20.50;45.40;;;;;;6155121;28;20203;-65
2021/10/17 14:24:07;;;;;;;7.60;6.70;;;20.40;46.20;;;;;;6154805;28;20678;-65
2021/10/17 14:27:12;;;;;;;6.20;5.80;;;20.10;46.90;;;;;;6144953;28;20227;-64
2021/10/17 14:30:15;;;;;;;7.00;6.30;;;19.90;47.80;;;;;;6154288;28;20495;-64
2021/10/17 14:33:18;;;;;;;6.73;6.23;;;19.70;48.30;;;;;;6156359;28;20234;-65
2021/10/17 14:36:21;;;;;;;7.23;6.50;;;19.50;49.50;;;;;;6156985;28;20319;-65
2021/10/17 14:39:24;;;;;;;7.40;6.80;;;19.40;50.20;;;;;;6154472;28;20960;-65
2021/10/17 14:42:29;;;;;;;6.43;5.93;;;19.30;50.80;;;;;;6153425;28;20231;-65
2021/10/17 14:45:32;;;;;;;6.20;5.60;;;19.30;51.10;;;;;;6153502;28;20671;-65
2021/10/17 14:48:35;;;;;;;8.10;6.30;;;19.20;51.90;;;;;;6153994;28;20234;-65
2021/10/17 14:51:38;;;;;;;6.23;5.63;;;18.90;52.40;;;;;;6153933;28;20250;-65
2021/10/17 14:54:42;;;;;;;6.90;6.30;;;18.90;52.80;;;;;;6153764;28;20239;-65
2021/10/17 14:57:46;;;;;;;6.60;6.10;;;18.70;53.70;;;;;;6153044;28;20235;-65
2021/10/17 15:00:49;;;;;;;6.20;5.70;;;18.40;54.50;;;;;;6145893;28;20466;-63
2021/10/17 15:03:53;;;;;;;5.20;4.80;;;18.30;54.90;;;;;;6143360;28;20231;-65
2021/10/17 15:06:59;;;;;;;6.13;5.53;;;18.20;55.30;;;;;;6132482;28;20238;-66
2021/10/17 15:10:02;;;;;;;7.70;5.87;;;18.20;55.50;;;;;;6136329;28;20242;-68
2021/10/17 15:13:07;;;;;;;5.80;5.30;;;18.10;55.60;;;;;;6134547;28;20486;-65
2021/10/17 15:16:11;;;;;;;5.73;5.23;;;18.00;55.90;;;;;;6134386;28;20482;-66
2021/10/17 15:19:15;;;;;;;5.47;5.07;;;17.90;56.60;;;;;;6132885;28;20242;-67
2021/10/17 15:22:19;;;;;;;6.43;5.83;;;17.60;57.10;;;;;;6123177;28;20478;-68
2021/10/17 15:25:22;;;;;;;6.37;5.73;;;17.50;57.60;;;;;;6133484;28;20498;-68
2021/10/17 15:28:26;;;;;;;5.73;5.13;;;17.40;58.10;;;;;;6132694;28;20471;-68
2021/10/17 15:31:30;;;;;;;5.53;5.03;;;17.30;58.80;;;;;;6128697;28;20471;-68
2021/10/17 15:34:33;;;;;;;6.00;5.40;;;17.20;59.10;;;;;;6132728;28;20491;-68
2021/10/17 15:37:37;;;;;;;7.37;5.30;;;17.20;59.40;;;;;;6132880;28;20475;-70
2021/10/17 15:40:43;;;;;;;5.87;5.30;;;17.20;59.60;;;;;;6143166;28;20479;-68
2021/10/17 15:43:49;;;;;;;5.87;5.10;;;17.10;59.70;;;;;;6143077;28;20484;-67
2021/10/17 15:46:53;;;;;;;5.57;5.07;;;17.10;60.20;;;;;;6133700;28;20816;-66
2021/10/17 15:49:56;;;;;;;5.80;5.30;;;17.10;60.30;;;;;;6131789;28;20475;-65
2021/10/17 15:52:59;;;;;;;4.90;4.47;;;17.00;62.10;;;;;;6132108;28;20826;-64
2021/10/17 15:56:02;;;;;;;5.47;4.97;;;16.90;62.80;;;;;;6131819;28;20492;-65
2021/10/17 15:59:07;;;;;;;7.17;6.30;;;16.80;63.90;;;;;;6132160;28;20487;-64
2021/10/17 16:02:11;;;;;;;6.23;5.60;;;16.80;65.30;;;;;;6132068;28;20813;-64
2021/10/17 16:05:14;;;;;;;5.83;5.33;;;16.70;66.30;;;;;;6131564;28;20940;-65